Shreveport Regional Airport
KSHV : now visible

Aeroporto :











RITROVATECI SU...

 
LOGIN :

Iscrizione | Disclaimer

   EN    FR    IT 

 









Sommario :    VFR   VFR Marginale   IFR   IFR Intensivo   IFR Molto Intensivo
Visibilità : 
Base nubi : 
>= 8 km
>= 3000ft
5 / 8 km
1000 / 3000 ft
1500m / 5 km
500 / 1000 ft
800 / 1500m
200 / 500 ft
< 800m
< 200 ft
Simboli :   Temporali  Nebbia  Neve Forte  Precipitazioni Forti  Vento > 20 kt







- Altitudine del aeroporto : 258 ft
- Codice IATA : SHV


KSHV - Shreveport Regional

ULTIMO METAR :
  • 250956Z 13003KT 10SM OVC011 25/23 A2989 RMK AO2 RAB16E38 SLP116 P0001 T02500233

METARs OBSOLETI :
  • 250856Z 14005KT 10SM BKN012 OVC021 26/23 A2990 RMK AO2 SLP119 T02560233 56004
  • 250815Z 13006KT 10SM FEW012 OVC019 26/23 A2990 RMK AO2 T02560233

TAF KSHV
Valido dal 25 a 06 ore il 26 a 06 ore UTC


250555Z 2506/2606 16011KT P6SM BKN013 OVC140
FM250700 15005KT P6SM OVC015
FM250900 15005KT 6SM BR VCSH OVC007
FM251400 17005KT P6SM OVC015
FM251800 16006KT P6SM VCTS BKN050CB
FM260000 14005KT P6SM FEW050 SCT250
Nessun NOTAM noto per questo aeroporto.



MetMap, La meteo Aeronautica in un colpo d'occhio ! - Copyright ORBIFLY Dicembre 2007 - Disclaimer

ORBIFLY MET'MAP TEAM :

Programmazione e sviluppo : Alexandra Zaïnal
Concezione e sviluppo : Baudouin d'Aumeries
Co-Programmazione e sviluppo : Marc-Olivier Méhu
Supporto tecnico e logistico : Manuel Goepfert
Aiuto per la traduzione : Arnaldo La Scala

Contatto : metmap@orbifly.com




FONTI E CREDITI :

   NOAA       Earth
Advisory